»·PEaware :: WAT306 KBOI-KRNO

WAT306 :: KBOI-KRNO

FLIGHT INFORMATION

Flight Status: Arrived
Operator:
Walker Air Transport
More flights by this operator :: More flights under this callsign
Pilot: Ethan S. (29221)
Aircraft: SOCATA TBM-900
(TBM9)
More flights by this aircraft type
Origin: KBOI Boise Air Terminal/Gowen
United States
Destination: KRNO Reno/Tahoe Intl
United States
More flights between these airports :: More routes between these airports
Route: +BOI3 HYVAL REO FMG
File this flight plan on PilotEdge
Remarks:
Altitude:
(Current/Filed)
28,000ft
Speed:
(Current/Filed)
320kts
Departed: 07-Nov-20 03:31 PM
Arrived: 07-Nov-20 04:35 PM
Distance/Time
Traveled:
291nm/1:04
Distance/Time
To Go:
Arrived

Flight Plot

Page will automatically refresh every two minutes.

Flight plan parsing failed; only flown route is shown


Map Options




Map Legend


Flown Route
Filed Route
Departure Airport
Arrival Airport
Navaid (VOR, NDB)
Fix

Horizontal Profiles

Position Reports

Time Latitude Longitude Heading Altitude Ground
Speed
07-Nov-20 15:21 43.570477 -116.225952 91 2838ft 0kts
07-Nov-20 15:22 43.570477 -116.225952 91 2838ft 0kts
07-Nov-20 15:23 43.570477 -116.225952 91 2838ft 0kts
07-Nov-20 15:24 43.570476 -116.225924 93 2838ft 2kts
07-Nov-20 15:25 43.567701 -116.226033 115 2842ft 13kts
07-Nov-20 15:26 43.565765 -116.220352 116 2848ft 12kts
07-Nov-20 15:27 43.564096 -116.215485 115 2853ft 20kts
07-Nov-20 15:28 43.561653 -116.208310 115 2861ft 18kts
07-Nov-20 15:29 43.559741 -116.202730 118 2867ft 12kts
07-Nov-20 15:30 43.561334 -116.210921 295 2860ft 98kts
07-Nov-20 15:31 43.575302 -116.256426 280 4586ft 134kts
07-Nov-20 15:32 43.589514 -116.304645 289 6726ft 137kts
07-Nov-20 15:33 43.580388 -116.347471 222 8857ft 130kts
07-Nov-20 15:34 43.553022 -116.383897 219 11007ft 139kts
07-Nov-20 15:35 43.524088 -116.422090 218 13309ft 143kts
07-Nov-20 15:36 43.494181 -116.461502 218 15392ft 147kts
07-Nov-20 15:37 43.457911 -116.509089 219 16039ft 212kts
07-Nov-20 15:38 43.414009 -116.567059 218 18024ft 169kts
07-Nov-20 15:39 43.380822 -116.610554 218 20664ft 157kts
07-Nov-20 15:40 43.346288 -116.655767 217 22757ft 162kts
07-Nov-20 15:41 43.310533 -116.702516 217 24636ft 169kts
07-Nov-20 15:42 43.273410 -116.750991 217 27063ft 172kts
07-Nov-20 15:43 43.228602 -116.809282 219 27568ft 248kts
07-Nov-20 15:44 43.170952 -116.884219 219 27537ft 279kts
07-Nov-20 15:45 43.114883 -116.966450 230 27534ft 288kts
07-Nov-20 15:46 43.062505 -117.057763 232 27530ft 295kts
07-Nov-20 15:47 43.009230 -117.150416 233 27539ft 304kts
07-Nov-20 15:48 42.954181 -117.245776 233 27548ft 311kts
07-Nov-20 15:49 42.898390 -117.342158 233 27554ft 318kts
07-Nov-20 15:50 42.841289 -117.440422 233 27551ft 323kts
07-Nov-20 15:51 42.782136 -117.541876 233 27549ft 325kts
07-Nov-20 15:52 42.721962 -117.644732 233 27548ft 326kts
07-Nov-20 15:53 42.661615 -117.747558 232 27551ft 326kts
07-Nov-20 15:54 42.601056 -117.850541 232 27547ft 327kts
07-Nov-20 15:55 42.516468 -117.913981 204 27553ft 330kts
07-Nov-20 15:56 42.427238 -117.968361 204 27550ft 330kts
07-Nov-20 15:57 42.338142 -118.022791 204 27552ft 330kts
07-Nov-20 15:58 42.248754 -118.077230 204 27552ft 330kts
07-Nov-20 15:59 42.158673 -118.131913 204 27550ft 330kts
07-Nov-20 16:00 42.068138 -118.186703 204 27553ft 330kts
07-Nov-20 16:01 41.978504 -118.240783 204 27553ft 331kts
07-Nov-20 16:02 41.887173 -118.295707 204 27550ft 330kts
07-Nov-20 16:03 41.795044 -118.350937 204 27550ft 330kts
07-Nov-20 16:04 41.703754 -118.405497 204 27563ft 330kts
07-Nov-20 16:05 41.613615 -118.459211 204 27589ft 329kts
07-Nov-20 16:06 41.523686 -118.512613 204 27598ft 330kts
07-Nov-20 16:07 41.433481 -118.566029 204 27598ft 330kts
07-Nov-20 16:08 41.343124 -118.619366 204 27597ft 330kts
07-Nov-20 16:09 41.253459 -118.672144 203 27596ft 330kts
07-Nov-20 16:10 41.164125 -118.724523 204 27596ft 328kts
07-Nov-20 16:11 41.075671 -118.776246 205 27606ft 326kts
07-Nov-20 16:12 40.986083 -118.828451 208 27634ft 331kts
07-Nov-20 16:13 40.895737 -118.881070 209 26675ft 346kts
07-Nov-20 16:14 40.804894 -118.933739 210 25107ft 344kts
07-Nov-20 16:15 40.715064 -118.985685 210 23650ft 337kts
07-Nov-20 16:16 40.630794 -119.034238 212 23634ft 308kts
07-Nov-20 16:17 40.550822 -119.080261 212 23639ft 300kts
07-Nov-20 16:18 40.472291 -119.125286 212 23642ft 298kts
07-Nov-20 16:19 40.393709 -119.170232 212 23640ft 297kts
07-Nov-20 16:20 40.315609 -119.214784 212 23644ft 297kts
07-Nov-20 16:21 40.234584 -119.260952 211 22700ft 321kts
07-Nov-20 16:22 40.148460 -119.309771 210 21168ft 330kts
07-Nov-20 16:23 40.061521 -119.358966 210 19619ft 327kts
07-Nov-20 16:24 39.978209 -119.405969 209 18057ft 309kts
07-Nov-20 16:25 39.900548 -119.449681 209 16478ft 280kts
07-Nov-20 16:26 39.829550 -119.489565 209 14907ft 268kts
07-Nov-20 16:27 39.760706 -119.528134 208 13348ft 259kts
07-Nov-20 16:28 39.695490 -119.564600 208 11785ft 245kts
07-Nov-20 16:29 39.634849 -119.598415 208 10996ft 226kts
07-Nov-20 16:30 39.568740 -119.618227 183 9876ft 254kts
07-Nov-20 16:31 39.504820 -119.640996 218 8218ft 225kts
07-Nov-20 16:32 39.496235 -119.710572 269 6272ft 176kts
07-Nov-20 16:33 39.496211 -119.753637 268 4519ft 78kts
07-Nov-20 16:34 39.497160 -119.765198 359 4418ft 0kts
07-Nov-20 16:35 39.499026 -119.765188 359 4418ft 13kts
07-Nov-20 16:36 39.500205 -119.764250 180 4418ft 0kts
07-Nov-20 16:37 39.500205 -119.764250 180 4418ft 0kts

Navigation Log

Ident Type
Flight plan parsing failed, navigation log unavailable